Photometre #742[NE_1.6_Dp] OHP_OBSERVATOIRE AOT

File : 20190925_742.hum

25/09/2019,06:16:55,TEMP=20.5,BA=5.64,STAT.h
25/09/2019,06:20:30,TEMP=20.5,BA=5.64,STAT.h
25/09/2019,06:24:41,TEMP=20.5,BA=5.64,STAT.h
25/09/2019,06:29:57,TEMP=20.5,BA=5.64,STAT.h
25/09/2019,06:35:41,TEMP=20.5,BA=5.56,STAT.h
25/09/2019,06:43:06,TEMP=20.5,BA=5.64,STAT.h
25/09/2019,06:52:30,TEMP=20.5,BA=5.64,STAT.h
25/09/2019,06:57:23,TEMP=14.4,BA=5.64,STAT.A,ExtBa=13.19
25/09/2019,07:02:24,TEMP=14.6,BA=5.64,STAT.A,ExtBa=13.19
25/09/2019,07:08:05,TEMP=14.8,BA=5.64,STAT.A,ExtBa=13.19
25/09/2019,07:14:34,TEMP=14.9,BA=5.64,STAT.A,ExtBa=13.19
25/09/2019,07:22:01,TEMP=15.1,BA=5.64,STAT.C,ExtBa=13.19
25/09/2019,07:30:42,TEMP=15.4,BA=5.64,STAT.A,ExtBa=13.19
25/09/2019,07:40:58,TEMP=15.8,BA=5.64,STAT.A,ExtBa=13.19
25/09/2019,07:53:19,TEMP=16.3,BA=5.64,STAT.A,ExtBa=13.19
25/09/2019,08:08:36,TEMP=17.9,BA=5.64,STAT.A,ExtBa=13.19
25/09/2019,08:28:08,TEMP=19.4,BA=5.64,STAT.B,ExtBa=13.19
25/09/2019,08:33:50,TEMP=20.8,BA=5.48,STAT.h
25/09/2019,08:34:04,TEMP=20.8,BA=5.48,STAT.h
25/09/2019,08:44:34,TEMP=20.8,BA=5.64,STAT.D,ExtBa=13.11
25/09/2019,08:59:32,TEMP=20.0,BA=5.64,STAT.D,ExtBa=13.28
25/09/2019,09:14:32,TEMP=20.0,BA=5.64,STAT.D,ExtBa=13.29
25/09/2019,09:29:34,TEMP=20.3,BA=5.64,STAT.F,ExtBa=13.23
25/09/2019,09:53:59,TEMP=21.8,BA=5.48,STAT.D,ExtBa=12.91
25/09/2019,09:59:32,TEMP=21.2,BA=5.48,STAT.D,ExtBa=13.05
25/09/2019,10:14:32,TEMP=21.0,BA=5.60,STAT.D,ExtBa=13.32
25/09/2019,10:29:34,TEMP=21.8,BA=5.60,STAT.F,ExtBa=13.38
25/09/2019,10:44:32,TEMP=21.3,BA=5.64,STAT.D,ExtBa=13.46
25/09/2019,10:59:32,TEMP=22.4,BA=5.60,STAT.D,ExtBa=13.48
25/09/2019,11:14:32,TEMP=23.2,BA=5.60,STAT.D,ExtBa=13.49
25/09/2019,11:29:34,TEMP=23.4,BA=5.60,STAT.F,ExtBa=13.45
25/09/2019,11:50:29,TEMP=25.4,BA=5.48,STAT.D,ExtBa=12.81
25/09/2019,11:59:32,TEMP=24.1,BA=5.48,STAT.D,ExtBa=13.14
25/09/2019,12:14:32,TEMP=23.9,BA=5.60,STAT.D,ExtBa=13.35
25/09/2019,12:29:34,TEMP=23.9,BA=5.60,STAT.F,ExtBa=13.37
25/09/2019,12:51:23,TEMP=25.4,BA=5.44,STAT.D,ExtBa=12.81
25/09/2019,12:59:32,TEMP=23.9,BA=5.44,STAT.D,ExtBa=13.12
25/09/2019,13:14:32,TEMP=24.1,BA=5.60,STAT.D,ExtBa=13.31
25/09/2019,13:29:34,TEMP=24.2,BA=5.60,STAT.F,ExtBa=13.32
25/09/2019,13:51:15,TEMP=24.9,BA=5.44,STAT.D,ExtBa=12.82
25/09/2019,13:59:32,TEMP=23.4,BA=5.44,STAT.D,ExtBa=13.12
25/09/2019,14:14:32,TEMP=22.1,BA=5.60,STAT.D,ExtBa=13.29
25/09/2019,14:29:33,TEMP=21.1,BA=5.60,STAT.F,ExtBa=13.30
25/09/2019,14:51:40,TEMP=24.0,BA=5.44,STAT.B,ExtBa=12.82
25/09/2019,14:59:37,TEMP=22.2,BA=5.44,STAT.A,ExtBa=12.81
25/09/2019,15:05:47,TEMP=21.4,BA=5.44,STAT.A,ExtBa=13.05
25/09/2019,15:18:08,TEMP=21.8,BA=5.60,STAT.A,ExtBa=13.23
25/09/2019,15:28:24,TEMP=22.1,BA=5.60,STAT.A,ExtBa=13.28
25/09/2019,15:37:05,TEMP=21.8,BA=5.48,STAT.C,ExtBa=13.28
25/09/2019,15:59:25,TEMP=23.2,BA=5.44,STAT.A,ExtBa=12.79
25/09/2019,16:01:22,TEMP=22.8,BA=5.44,STAT.A,ExtBa=12.81
25/09/2019,16:03:19,TEMP=22.6,BA=5.44,STAT.A,ExtBa=12.84
25/09/2019,16:05:31,TEMP=22.3,BA=5.44,STAT.A,ExtBa=12.81
25/09/2019,16:07:35,TEMP=22.0,BA=5.44,STAT.B,ExtBa=12.80
25/09/2019,16:15:52,TEMP=21.1,BA=5.44,STAT.A,ExtBa=12.76
25/09/2019,16:23:02,TEMP=20.7,BA=5.60,STAT.A,ExtBa=13.02
25/09/2019,16:29:03,TEMP=20.8,BA=5.60,STAT.A,ExtBa=13.11
25/09/2019,16:34:02,TEMP=20.7,BA=5.48,STAT.A,ExtBa=13.06
25/09/2019,16:47:53,TEMP=20.1,BA=5.52,STAT.A,ExtBa=13.22
25/09/2019,16:49:58,TEMP=20.4,BA=5.52,STAT.A,ExtBa=13.07